Brent, Alabama
Current Conditions -  °F | °C
As of 6:53 PM on Tuesday 25 Nov 2014 (Local Time) from KEET Reporting Station
Clear Clear  
Wind Chill: 52°   Ceiling: Unl
Heat Index: 52°   Visibility: 10mi
Dew Point: 30°   Wind: 8mph
Humidity: 43%   Direction: 350°N
Pressure: 30.09"   Gusts: NA
Location:  32.94°N, 87.16°W
Report Text: KEET 260053Z AUTO 35007KT 10SM CLR 11/M01 A3009 RMK AO2 PRESFR SLP189 T01111011
Loading
Personal Weather Stations






























Interactive Weather Map New forecast layout! Learn more

10-Day Weather Forecast

Advertisements
Track Severe Weather on mobile